sensor_id;sensor_type;location;lat;lon;timestamp;temperature;humidity
55777;DHT22;54079;44.540;18.784;2023-06-22T00:02:17;23.20;99.90
55777;DHT22;54079;44.540;18.784;2023-06-22T00:04:44;23.20;99.90
55777;DHT22;54079;44.540;18.784;2023-06-22T00:07:10;23.30;99.90
55777;DHT22;54079;44.540;18.784;2023-06-22T00:09:36;23.30;99.90
55777;DHT22;54079;44.540;18.784;2023-06-22T00:12:02;23.30;99.90
55777;DHT22;54079;44.540;18.784;2023-06-22T00:14:28;23.40;99.90
55777;DHT22;54079;44.540;18.784;2023-06-22T00:16:54;23.50;99.90
55777;DHT22;54079;44.540;18.784;2023-06-22T00:19:22;23.40;99.90
55777;DHT22;54079;44.540;18.784;2023-06-22T00:21:49;23.50;99.90
55777;DHT22;54079;44.540;18.784;2023-06-22T00:24:21;23.30;99.90
55777;DHT22;54079;44.540;18.784;2023-06-22T00:26:50;23.20;99.90
55777;DHT22;54079;44.540;18.784;2023-06-22T00:29:16;23.30;99.90
55777;DHT22;54079;44.540;18.784;2023-06-22T00:31:44;23.30;99.90
55777;DHT22;54079;44.540;18.784;2023-06-22T00:34:10;23.30;99.90
55777;DHT22;54079;44.540;18.784;2023-06-22T00:36:38;23.00;99.90
55777;DHT22;54079;44.540;18.784;2023-06-22T00:39:06;22.70;99.90
55777;DHT22;54079;44.540;18.784;2023-06-22T00:41:33;22.80;99.90
55777;DHT22;54079;44.540;18.784;2023-06-22T00:43:59;22.90;99.90
55777;DHT22;54079;44.540;18.784;2023-06-22T00:46:25;23.00;99.90
55777;DHT22;54079;44.540;18.784;2023-06-22T00:48:51;23.00;99.90
55777;DHT22;54079;44.540;18.784;2023-06-22T00:51:18;23.10;99.90
55777;DHT22;54079;44.540;18.784;2023-06-22T00:53:46;22.90;99.90
55777;DHT22;54079;44.540;18.784;2023-06-22T00:56:12;23.00;99.90
55777;DHT22;54079;44.540;18.784;2023-06-22T00:58:38;22.90;99.90
55777;DHT22;54079;44.540;18.784;2023-06-22T01:01:07;22.80;99.90
55777;DHT22;54079;44.540;18.784;2023-06-22T01:03:33;22.90;99.90
55777;DHT22;54079;44.540;18.784;2023-06-22T01:06:10;22.90;99.90
55777;DHT22;54079;44.540;18.784;2023-06-22T01:09:02;23.00;99.90
55777;DHT22;54079;44.540;18.784;2023-06-22T01:11:39;23.00;99.90
55777;DHT22;54079;44.540;18.784;2023-06-22T01:14:25;22.90;99.90
55777;DHT22;54079;44.540;18.784;2023-06-22T01:16:54;23.00;99.90
55777;DHT22;54079;44.540;18.784;2023-06-22T01:19:43;23.10;99.90
55777;DHT22;54079;44.540;18.784;2023-06-22T01:22:11;23.00;99.90
55777;DHT22;54079;44.540;18.784;2023-06-22T01:30:07;22.50;99.90
55777;DHT22;54079;44.540;18.784;2023-06-22T01:32:38;22.60;99.90
55777;DHT22;54079;44.540;18.784;2023-06-22T01:35:06;22.90;99.90
55777;DHT22;54079;44.540;18.784;2023-06-22T01:37:33;22.80;99.90
55777;DHT22;54079;44.540;18.784;2023-06-22T01:40:01;22.80;99.90
55777;DHT22;54079;44.540;18.784;2023-06-22T01:42:27;22.90;99.90
55777;DHT22;54079;44.540;18.784;2023-06-22T01:44:54;22.90;99.90
55777;DHT22;54079;44.540;18.784;2023-06-22T01:47:24;23.00;99.90
55777;DHT22;54079;44.540;18.784;2023-06-22T01:49:51;22.90;99.90
55777;DHT22;54079;44.540;18.784;2023-06-22T01:52:18;22.90;99.90
55777;DHT22;54079;44.540;18.784;2023-06-22T01:54:44;22.90;99.90
55777;DHT22;54079;44.540;18.784;2023-06-22T01:57:10;23.00;99.90
55777;DHT22;54079;44.540;18.784;2023-06-22T01:59:48;23.00;99.90
55777;DHT22;54079;44.540;18.784;2023-06-22T02:02:20;23.20;99.90
55777;DHT22;54079;44.540;18.784;2023-06-22T02:04:59;23.20;99.90
55777;DHT22;54079;44.540;18.784;2023-06-22T02:07:33;23.30;99.90
55777;DHT22;54079;44.540;18.784;2023-06-22T02:10:02;23.40;99.90
55777;DHT22;54079;44.540;18.784;2023-06-22T02:12:30;23.30;99.90
55777;DHT22;54079;44.540;18.784;2023-06-22T02:14:57;23.10;99.90
55777;DHT22;54079;44.540;18.784;2023-06-22T02:17:27;22.50;99.90
55777;DHT22;54079;44.540;18.784;2023-06-22T02:19:53;22.50;99.90
55777;DHT22;54079;44.540;18.784;2023-06-22T02:22:19;22.60;99.90
55777;DHT22;54079;44.540;18.784;2023-06-22T02:24:45;22.70;99.90
55777;DHT22;54079;44.540;18.784;2023-06-22T02:27:11;22.90;99.90
55777;DHT22;54079;44.540;18.784;2023-06-22T02:29:38;23.10;99.90
55777;DHT22;54079;44.540;18.784;2023-06-22T02:32:04;23.10;99.90
55777;DHT22;54079;44.540;18.784;2023-06-22T02:34:30;22.90;99.90
55777;DHT22;54079;44.540;18.784;2023-06-22T02:36:56;22.90;99.90
55777;DHT22;54079;44.540;18.784;2023-06-22T02:39:24;22.90;99.90
55777;DHT22;54079;44.540;18.784;2023-06-22T02:41:50;22.80;99.90
55777;DHT22;54079;44.540;18.784;2023-06-22T02:44:17;22.80;99.90
55777;DHT22;54079;44.540;18.784;2023-06-22T02:46:43;23.00;99.90
55777;DHT22;54079;44.540;18.784;2023-06-22T02:49:10;23.00;99.90
55777;DHT22;54079;44.540;18.784;2023-06-22T02:51:39;23.00;99.90
55777;DHT22;54079;44.540;18.784;2023-06-22T02:54:06;23.00;99.90
55777;DHT22;54079;44.540;18.784;2023-06-22T02:56:32;22.90;99.90
55777;DHT22;54079;44.540;18.784;2023-06-22T02:58:58;22.90;99.90
55777;DHT22;54079;44.540;18.784;2023-06-22T03:01:30;23.00;99.90
55777;DHT22;54079;44.540;18.784;2023-06-22T03:04:08;23.00;99.90
55777;DHT22;54079;44.540;18.784;2023-06-22T03:06:35;22.90;99.90
55777;DHT22;54079;44.540;18.784;2023-06-22T03:09:03;22.90;99.90
55777;DHT22;54079;44.540;18.784;2023-06-22T03:11:31;22.50;99.90
55777;DHT22;54079;44.540;18.784;2023-06-22T03:13:57;22.50;99.90
55777;DHT22;54079;44.540;18.784;2023-06-22T03:16:23;22.50;99.90
55777;DHT22;54079;44.540;18.784;2023-06-22T03:18:49;22.60;99.90
55777;DHT22;54079;44.540;18.784;2023-06-22T03:21:15;22.80;99.90
55777;DHT22;54079;44.540;18.784;2023-06-22T03:23:42;22.80;99.90
55777;DHT22;54079;44.540;18.784;2023-06-22T03:26:09;22.80;99.90
55777;DHT22;54079;44.540;18.784;2023-06-22T03:28:37;22.20;99.90
55777;DHT22;54079;44.540;18.784;2023-06-22T03:31:04;21.90;99.90
55777;DHT22;54079;44.540;18.784;2023-06-22T03:33:32;22.20;99.90
55777;DHT22;54079;44.540;18.784;2023-06-22T03:35:58;22.50;99.90
55777;DHT22;54079;44.540;18.784;2023-06-22T03:38:24;22.60;99.90
55777;DHT22;54079;44.540;18.784;2023-06-22T03:40:50;22.80;99.90
55777;DHT22;54079;44.540;18.784;2023-06-22T03:43:16;22.90;99.90
55777;DHT22;54079;44.540;18.784;2023-06-22T03:45:41;23.00;99.90
55777;DHT22;54079;44.540;18.784;2023-06-22T03:48:11;23.00;99.90
55777;DHT22;54079;44.540;18.784;2023-06-22T03:50:37;22.90;99.90
55777;DHT22;54079;44.540;18.784;2023-06-22T03:53:03;21.90;99.90
55777;DHT22;54079;44.540;18.784;2023-06-22T03:55:29;21.80;99.90
55777;DHT22;54079;44.540;18.784;2023-06-22T03:57:55;21.70;99.90
55777;DHT22;54079;44.540;18.784;2023-06-22T04:00:25;22.20;99.90
55777;DHT22;54079;44.540;18.784;2023-06-22T04:02:51;22.80;99.90
55777;DHT22;54079;44.540;18.784;2023-06-22T04:05:17;22.60;99.90
55777;DHT22;54079;44.540;18.784;2023-06-22T04:07:44;23.10;99.90
55777;DHT22;54079;44.540;18.784;2023-06-22T04:10:10;23.70;99.90
55777;DHT22;54079;44.540;18.784;2023-06-22T04:12:36;24.10;99.90
55777;DHT22;54079;44.540;18.784;2023-06-22T04:15:02;24.40;99.90
55777;DHT22;54079;44.540;18.784;2023-06-22T04:17:28;25.00;99.90
55777;DHT22;54079;44.540;18.784;2023-06-22T04:19:54;25.70;99.00
55777;DHT22;54079;44.540;18.784;2023-06-22T04:22:20;26.20;97.10
55777;DHT22;54079;44.540;18.784;2023-06-22T04:24:46;26.90;95.80
55777;DHT22;54079;44.540;18.784;2023-06-22T04:27:12;27.20;94.70
55777;DHT22;54079;44.540;18.784;2023-06-22T04:29:38;27.80;94.00
55777;DHT22;54079;44.540;18.784;2023-06-22T04:32:15;28.20;92.80
55777;DHT22;54079;44.540;18.784;2023-06-22T04:34:41;28.50;91.10
55777;DHT22;54079;44.540;18.784;2023-06-22T04:37:07;28.70;91.40
55777;DHT22;54079;44.540;18.784;2023-06-22T04:39:33;28.40;91.00
55777;DHT22;54079;44.540;18.784;2023-06-22T04:41:59;27.90;91.30
55777;DHT22;54079;44.540;18.784;2023-06-22T04:44:26;28.00;91.40
55777;DHT22;54079;44.540;18.784;2023-06-22T04:46:57;27.80;91.20
55777;DHT22;54079;44.540;18.784;2023-06-22T04:49:29;28.70;90.70
55777;DHT22;54079;44.540;18.784;2023-06-22T04:51:59;30.00;89.60
55777;DHT22;54079;44.540;18.784;2023-06-22T04:54:25;30.50;87.30
55777;DHT22;54079;44.540;18.784;2023-06-22T04:56:51;31.10;85.70
55777;DHT22;54079;44.540;18.784;2023-06-22T04:59:23;31.80;84.30
55777;DHT22;54079;44.540;18.784;2023-06-22T05:01:57;32.30;82.00
55777;DHT22;54079;44.540;18.784;2023-06-22T05:04:24;32.20;82.10
55777;DHT22;54079;44.540;18.784;2023-06-22T05:06:51;33.00;80.90
55777;DHT22;54079;44.540;18.784;2023-06-22T05:09:18;33.50;78.90
55777;DHT22;54079;44.540;18.784;2023-06-22T05:11:47;33.90;78.00
55777;DHT22;54079;44.540;18.784;2023-06-22T05:14:13;34.20;77.50
55777;DHT22;54079;44.540;18.784;2023-06-22T05:16:41;35.20;76.10
55777;DHT22;54079;44.540;18.784;2023-06-22T05:19:07;35.70;75.10
55777;DHT22;54079;44.540;18.784;2023-06-22T05:21:33;36.30;73.30
55777;DHT22;54079;44.540;18.784;2023-06-22T05:23:59;36.90;72.10
55777;DHT22;54079;44.540;18.784;2023-06-22T05:26:31;37.40;71.50
55777;DHT22;54079;44.540;18.784;2023-06-22T05:29:00;37.10;71.50
55777;DHT22;54079;44.540;18.784;2023-06-22T05:31:26;38.00;70.80
55777;DHT22;54079;44.540;18.784;2023-06-22T05:33:54;37.90;69.30
55777;DHT22;54079;44.540;18.784;2023-06-22T05:36:20;38.10;69.50
55777;DHT22;54079;44.540;18.784;2023-06-22T05:38:47;39.10;68.00
55777;DHT22;54079;44.540;18.784;2023-06-22T05:41:13;39.70;67.20
55777;DHT22;54079;44.540;18.784;2023-06-22T05:43:40;40.60;65.00
55777;DHT22;54079;44.540;18.784;2023-06-22T05:46:05;40.80;65.00
55777;DHT22;54079;44.540;18.784;2023-06-22T05:48:32;41.00;64.50
55777;DHT22;54079;44.540;18.784;2023-06-22T05:50:58;40.50;63.80
55777;DHT22;54079;44.540;18.784;2023-06-22T05:53:24;40.10;64.50
55777;DHT22;54079;44.540;18.784;2023-06-22T05:55:50;40.70;64.30
55777;DHT22;54079;44.540;18.784;2023-06-22T05:58:16;40.60;65.10
55777;DHT22;54079;44.540;18.784;2023-06-22T06:00:43;41.00;64.00
55777;DHT22;54079;44.540;18.784;2023-06-22T06:03:10;41.70;63.70
55777;DHT22;54079;44.540;18.784;2023-06-22T06:05:37;42.50;62.20
55777;DHT22;54079;44.540;18.784;2023-06-22T06:08:05;42.60;62.20
55777;DHT22;54079;44.540;18.784;2023-06-22T06:10:32;42.70;62.00
55777;DHT22;54079;44.540;18.784;2023-06-22T06:12:59;42.00;62.60
55777;DHT22;54079;44.540;18.784;2023-06-22T06:15:28;42.60;62.80
55777;DHT22;54079;44.540;18.784;2023-06-22T06:17:54;43.60;60.70
55777;DHT22;54079;44.540;18.784;2023-06-22T06:20:22;43.80;60.50
55777;DHT22;54079;44.540;18.784;2023-06-22T06:22:49;43.90;59.70
55777;DHT22;54079;44.540;18.784;2023-06-22T06:25:16;45.10;58.30
55777;DHT22;54079;44.540;18.784;2023-06-22T06:27:53;46.50;56.00
55777;DHT22;54079;44.540;18.784;2023-06-22T06:30:20;47.10;54.90
55777;DHT22;54079;44.540;18.784;2023-06-22T06:32:47;47.40;55.60
55777;DHT22;54079;44.540;18.784;2023-06-22T06:35:14;48.20;54.80
55777;DHT22;54079;44.540;18.784;2023-06-22T06:37:44;48.30;54.20
55777;DHT22;54079;44.540;18.784;2023-06-22T06:40:11;47.80;53.40
55777;DHT22;54079;44.540;18.784;2023-06-22T06:42:38;48.30;53.20
55777;DHT22;54079;44.540;18.784;2023-06-22T06:45:07;49.10;52.80
55777;DHT22;54079;44.540;18.784;2023-06-22T06:47:33;49.20;53.40
55777;DHT22;54079;44.540;18.784;2023-06-22T06:49:59;49.50;52.90
55777;DHT22;54079;44.540;18.784;2023-06-22T06:52:25;49.50;52.90
55777;DHT22;54079;44.540;18.784;2023-06-22T06:54:52;50.30;51.90
55777;DHT22;54079;44.540;18.784;2023-06-22T06:57:18;50.10;52.10
55777;DHT22;54079;44.540;18.784;2023-06-22T06:59:45;49.40;52.10
55777;DHT22;54079;44.540;18.784;2023-06-22T07:02:11;49.60;51.70
55777;DHT22;54079;44.540;18.784;2023-06-22T07:04:37;49.80;51.30
55777;DHT22;54079;44.540;18.784;2023-06-22T07:07:03;49.80;51.60
55777;DHT22;54079;44.540;18.784;2023-06-22T07:09:29;48.90;52.20
55777;DHT22;54079;44.540;18.784;2023-06-22T07:11:55;49.80;51.20
55777;DHT22;54079;44.540;18.784;2023-06-22T07:14:21;48.90;52.00
55777;DHT22;54079;44.540;18.784;2023-06-22T07:16:47;49.10;51.80
55777;DHT22;54079;44.540;18.784;2023-06-22T07:19:13;49.40;51.20
55777;DHT22;54079;44.540;18.784;2023-06-22T07:21:39;50.30;50.50
55777;DHT22;54079;44.540;18.784;2023-06-22T07:24:05;49.30;51.20
55777;DHT22;54079;44.540;18.784;2023-06-22T07:26:32;50.60;50.80
55777;DHT22;54079;44.540;18.784;2023-06-22T07:28:58;51.70;50.30
55777;DHT22;54079;44.540;18.784;2023-06-22T07:31:25;52.30;49.90
55777;DHT22;54079;44.540;18.784;2023-06-22T07:33:51;53.30;49.00
55777;DHT22;54079;44.540;18.784;2023-06-22T07:36:17;53.80;48.70
55777;DHT22;54079;44.540;18.784;2023-06-22T07:38:44;54.20;48.30
55777;DHT22;54079;44.540;18.784;2023-06-22T07:41:10;54.60;47.50
55777;DHT22;54079;44.540;18.784;2023-06-22T07:43:36;54.50;47.50
55777;DHT22;54079;44.540;18.784;2023-06-22T07:46:05;54.50;47.40
55777;DHT22;54079;44.540;18.784;2023-06-22T07:48:32;54.40;47.10
55777;DHT22;54079;44.540;18.784;2023-06-22T07:50:58;53.40;47.80
55777;DHT22;54079;44.540;18.784;2023-06-22T07:53:24;54.10;48.20
55777;DHT22;54079;44.540;18.784;2023-06-22T07:55:50;54.20;46.80
55777;DHT22;54079;44.540;18.784;2023-06-22T07:58:16;54.20;47.30
55777;DHT22;54079;44.540;18.784;2023-06-22T08:00:44;54.50;47.50
55777;DHT22;54079;44.540;18.784;2023-06-22T08:03:10;54.60;47.20
55777;DHT22;54079;44.540;18.784;2023-06-22T08:05:38;55.30;45.70
55777;DHT22;54079;44.540;18.784;2023-06-22T08:08:04;53.50;46.40
55777;DHT22;54079;44.540;18.784;2023-06-22T08:10:30;54.20;47.00
55777;DHT22;54079;44.540;18.784;2023-06-22T08:12:56;54.00;46.20
55777;DHT22;54079;44.540;18.784;2023-06-22T08:15:22;51.30;47.60
55777;DHT22;54079;44.540;18.784;2023-06-22T08:17:47;51.20;47.50
55777;DHT22;54079;44.540;18.784;2023-06-22T08:20:13;52.00;47.20
55777;DHT22;54079;44.540;18.784;2023-06-22T08:22:43;52.70;46.70
55777;DHT22;54079;44.540;18.784;2023-06-22T08:54:34;54.50;45.20
55777;DHT22;54079;44.540;18.784;2023-06-22T09:00:22;53.60;46.00
55777;DHT22;54079;44.540;18.784;2023-06-22T09:09:31;50.30;48.50
55777;DHT22;54079;44.540;18.784;2023-06-22T09:15:19;47.50;50.20
55777;DHT22;54079;44.540;18.784;2023-06-22T09:21:07;45.10;52.40
55777;DHT22;54079;44.540;18.784;2023-06-22T09:26:55;43.60;54.00
55777;DHT22;54079;44.540;18.784;2023-06-22T09:32:43;42.70;54.50
55777;DHT22;54079;44.540;18.784;2023-06-22T09:38:31;42.10;55.70
55777;DHT22;54079;44.540;18.784;2023-06-22T09:44:19;40.70;57.20
55777;DHT22;54079;44.540;18.784;2023-06-22T09:50:06;40.30;57.80
55777;DHT22;54079;44.540;18.784;2023-06-22T09:55:55;39.50;58.70
55777;DHT22;54079;44.540;18.784;2023-06-22T10:01:44;39.30;60.50
55777;DHT22;54079;44.540;18.784;2023-06-22T10:07:32;39.90;58.70
55777;DHT22;54079;44.540;18.784;2023-06-22T10:13:20;39.00;58.90
55777;DHT22;54079;44.540;18.784;2023-06-22T10:19:08;38.80;59.00
55777;DHT22;54079;44.540;18.784;2023-06-22T10:24:56;37.70;61.40
55777;DHT22;54079;44.540;18.784;2023-06-22T10:27:22;38.00;61.50
55777;DHT22;54079;44.540;18.784;2023-06-22T10:29:47;38.10;62.80
55777;DHT22;54079;44.540;18.784;2023-06-22T10:32:13;38.10;61.40
55777;DHT22;54079;44.540;18.784;2023-06-22T10:34:39;38.20;61.60
55777;DHT22;54079;44.540;18.784;2023-06-22T10:37:07;37.70;61.10
55777;DHT22;54079;44.540;18.784;2023-06-22T10:39:33;37.80;61.90
55777;DHT22;54079;44.540;18.784;2023-06-22T10:41:58;37.90;61.70
55777;DHT22;54079;44.540;18.784;2023-06-22T10:44:24;38.20;60.50
55777;DHT22;54079;44.540;18.784;2023-06-22T10:46:50;38.30;61.40
55777;DHT22;54079;44.540;18.784;2023-06-22T10:49:16;37.90;60.00
55777;DHT22;54079;44.540;18.784;2023-06-22T10:51:42;38.00;61.90
55777;DHT22;54079;44.540;18.784;2023-06-22T10:54:08;38.10;61.20
55777;DHT22;54079;44.540;18.784;2023-06-22T10:56:34;38.40;61.40
55777;DHT22;54079;44.540;18.784;2023-06-22T10:59:00;38.50;60.80
55777;DHT22;54079;44.540;18.784;2023-06-22T11:01:27;37.60;60.60
55777;DHT22;54079;44.540;18.784;2023-06-22T11:03:53;37.50;61.10
55777;DHT22;54079;44.540;18.784;2023-06-22T11:06:19;37.20;62.60
55777;DHT22;54079;44.540;18.784;2023-06-22T11:08:45;37.30;60.50
55777;DHT22;54079;44.540;18.784;2023-06-22T11:11:11;37.40;61.40
55777;DHT22;54079;44.540;18.784;2023-06-22T11:13:37;37.60;61.90
55777;DHT22;54079;44.540;18.784;2023-06-22T11:16:03;37.90;60.30
55777;DHT22;54079;44.540;18.784;2023-06-22T11:18:31;38.10;60.10
55777;DHT22;54079;44.540;18.784;2023-06-22T11:20:59;38.10;59.80
55777;DHT22;54079;44.540;18.784;2023-06-22T11:23:25;37.40;60.40
55777;DHT22;54079;44.540;18.784;2023-06-22T11:25:53;37.60;59.30
55777;DHT22;54079;44.540;18.784;2023-06-22T11:28:19;37.60;59.60
55777;DHT22;54079;44.540;18.784;2023-06-22T11:30:45;37.80;61.10
55777;DHT22;54079;44.540;18.784;2023-06-22T11:33:11;37.80;62.30
55777;DHT22;54079;44.540;18.784;2023-06-22T11:35:37;38.00;61.90
55777;DHT22;54079;44.540;18.784;2023-06-22T11:38:03;38.20;61.60
55777;DHT22;54079;44.540;18.784;2023-06-22T11:40:30;38.10;61.40
55777;DHT22;54079;44.540;18.784;2023-06-22T11:42:56;38.00;61.50
55777;DHT22;54079;44.540;18.784;2023-06-22T11:45:22;38.20;61.40
55777;DHT22;54079;44.540;18.784;2023-06-22T11:47:48;38.20;61.90
55777;DHT22;54079;44.540;18.784;2023-06-22T11:50:14;37.50;60.80
55777;DHT22;54079;44.540;18.784;2023-06-22T11:52:40;37.30;60.90
55777;DHT22;54079;44.540;18.784;2023-06-22T11:55:06;37.40;60.90
55777;DHT22;54079;44.540;18.784;2023-06-22T11:57:37;37.00;60.00
55777;DHT22;54079;44.540;18.784;2023-06-22T12:00:06;36.80;61.90
55777;DHT22;54079;44.540;18.784;2023-06-22T12:02:41;37.10;62.00
55777;DHT22;54079;44.540;18.784;2023-06-22T12:05:07;37.10;61.80
55777;DHT22;54079;44.540;18.784;2023-06-22T12:07:34;36.90;60.30
55777;DHT22;54079;44.540;18.784;2023-06-22T12:10:01;36.90;61.00
55777;DHT22;54079;44.540;18.784;2023-06-22T12:12:27;36.40;62.50
55777;DHT22;54079;44.540;18.784;2023-06-22T12:14:53;36.30;62.50
55777;DHT22;54079;44.540;18.784;2023-06-22T12:17:19;36.60;64.30
55777;DHT22;54079;44.540;18.784;2023-06-22T12:19:45;36.80;62.60
55777;DHT22;54079;44.540;18.784;2023-06-22T12:22:11;37.10;62.90
55777;DHT22;54079;44.540;18.784;2023-06-22T12:24:36;37.00;61.80
55777;DHT22;54079;44.540;18.784;2023-06-22T12:27:03;37.20;61.30
55777;DHT22;54079;44.540;18.784;2023-06-22T12:29:29;37.00;60.90
55777;DHT22;54079;44.540;18.784;2023-06-22T12:31:55;36.90;61.30
55777;DHT22;54079;44.540;18.784;2023-06-22T12:34:21;36.90;61.70
55777;DHT22;54079;44.540;18.784;2023-06-22T12:36:46;37.00;62.40
55777;DHT22;54079;44.540;18.784;2023-06-22T12:39:14;37.20;64.10
55777;DHT22;54079;44.540;18.784;2023-06-22T12:41:40;37.20;63.20
55777;DHT22;54079;44.540;18.784;2023-06-22T12:44:06;37.30;65.30
55777;DHT22;54079;44.540;18.784;2023-06-22T12:46:32;36.70;64.50
55777;DHT22;54079;44.540;18.784;2023-06-22T12:49:03;36.60;64.00
55777;DHT22;54079;44.540;18.784;2023-06-22T12:51:30;36.80;63.80
55777;DHT22;54079;44.540;18.784;2023-06-22T12:53:56;37.00;63.20
55777;DHT22;54079;44.540;18.784;2023-06-22T12:56:23;37.20;64.00
55777;DHT22;54079;44.540;18.784;2023-06-22T12:58:49;37.00;65.50
55777;DHT22;54079;44.540;18.784;2023-06-22T13:01:15;36.80;64.20
55777;DHT22;54079;44.540;18.784;2023-06-22T13:03:43;36.40;63.90
55777;DHT22;54079;44.540;18.784;2023-06-22T13:06:09;35.90;64.90
55777;DHT22;54079;44.540;18.784;2023-06-22T13:08:35;35.80;65.20
55777;DHT22;54079;44.540;18.784;2023-06-22T13:11:01;35.70;66.70
55777;DHT22;54079;44.540;18.784;2023-06-22T13:13:28;35.80;67.60
55777;DHT22;54079;44.540;18.784;2023-06-22T13:15:53;35.90;67.20
55777;DHT22;54079;44.540;18.784;2023-06-22T13:18:19;36.10;66.60
55777;DHT22;54079;44.540;18.784;2023-06-22T13:20:45;35.90;65.30
55777;DHT22;54079;44.540;18.784;2023-06-22T13:23:13;35.60;68.10
55777;DHT22;54079;44.540;18.784;2023-06-22T13:25:41;35.50;69.30
55777;DHT22;54079;44.540;18.784;2023-06-22T13:28:07;35.50;69.50
55777;DHT22;54079;44.540;18.784;2023-06-22T13:30:33;35.50;70.20
55777;DHT22;54079;44.540;18.784;2023-06-22T13:32:59;35.70;67.60
55777;DHT22;54079;44.540;18.784;2023-06-22T13:35:25;35.90;66.70
55777;DHT22;54079;44.540;18.784;2023-06-22T13:37:51;35.90;67.60
55777;DHT22;54079;44.540;18.784;2023-06-22T13:40:18;36.10;67.00
55777;DHT22;54079;44.540;18.784;2023-06-22T13:42:44;36.10;67.40
55777;DHT22;54079;44.540;18.784;2023-06-22T13:45:10;36.00;68.70
55777;DHT22;54079;44.540;18.784;2023-06-22T13:47:37;36.00;66.80
55777;DHT22;54079;44.540;18.784;2023-06-22T13:50:03;35.90;67.60
55777;DHT22;54079;44.540;18.784;2023-06-22T13:52:29;35.80;66.90
55777;DHT22;54079;44.540;18.784;2023-06-22T13:54:55;35.80;66.10
55777;DHT22;54079;44.540;18.784;2023-06-22T13:57:21;35.40;67.30
55777;DHT22;54079;44.540;18.784;2023-06-22T13:59:47;35.40;68.30
55777;DHT22;54079;44.540;18.784;2023-06-22T14:02:13;35.50;69.50
55777;DHT22;54079;44.540;18.784;2023-06-22T14:04:39;35.80;68.90
55777;DHT22;54079;44.540;18.784;2023-06-22T14:07:05;36.00;66.70
55777;DHT22;54079;44.540;18.784;2023-06-22T14:09:31;36.00;66.70
55777;DHT22;54079;44.540;18.784;2023-06-22T14:11:57;36.10;67.60
55777;DHT22;54079;44.540;18.784;2023-06-22T14:14:23;36.10;68.40
55777;DHT22;54079;44.540;18.784;2023-06-22T14:16:49;36.20;68.20
55777;DHT22;54079;44.540;18.784;2023-06-22T14:19:17;35.90;68.60
55777;DHT22;54079;44.540;18.784;2023-06-22T14:21:46;35.40;71.70
55777;DHT22;54079;44.540;18.784;2023-06-22T14:24:12;35.30;69.10
55777;DHT22;54079;44.540;18.784;2023-06-22T14:26:42;35.40;69.10
55777;DHT22;54079;44.540;18.784;2023-06-22T14:29:12;35.10;69.80
55777;DHT22;54079;44.540;18.784;2023-06-22T14:31:38;35.20;69.80
55777;DHT22;54079;44.540;18.784;2023-06-22T14:34:04;35.10;70.30
55777;DHT22;54079;44.540;18.784;2023-06-22T14:36:31;34.80;70.70
55777;DHT22;54079;44.540;18.784;2023-06-22T14:38:57;34.70;70.40
55777;DHT22;54079;44.540;18.784;2023-06-22T14:41:23;34.70;69.70
55777;DHT22;54079;44.540;18.784;2023-06-22T14:43:50;34.90;70.80
55777;DHT22;54079;44.540;18.784;2023-06-22T14:46:19;34.80;72.40
55777;DHT22;54079;44.540;18.784;2023-06-22T14:48:46;35.00;70.80
55777;DHT22;54079;44.540;18.784;2023-06-22T14:51:12;34.90;70.00
55777;DHT22;54079;44.540;18.784;2023-06-22T14:53:38;34.80;70.90
55777;DHT22;54079;44.540;18.784;2023-06-22T14:56:04;34.90;72.00
55777;DHT22;54079;44.540;18.784;2023-06-22T14:58:31;34.70;73.00
55777;DHT22;54079;44.540;18.784;2023-06-22T15:01:01;34.70;73.00
55777;DHT22;54079;44.540;18.784;2023-06-22T15:03:27;35.00;72.30
55777;DHT22;54079;44.540;18.784;2023-06-22T15:05:56;35.30;72.50
55777;DHT22;54079;44.540;18.784;2023-06-22T15:08:22;35.40;73.10
55777;DHT22;54079;44.540;18.784;2023-06-22T15:10:48;35.30;72.10
55777;DHT22;54079;44.540;18.784;2023-06-22T15:13:14;35.30;73.00
55777;DHT22;54079;44.540;18.784;2023-06-22T15:15:40;35.10;74.60
55777;DHT22;54079;44.540;18.784;2023-06-22T15:18:06;34.80;76.20
55777;DHT22;54079;44.540;18.784;2023-06-22T15:20:32;34.70;73.80
55777;DHT22;54079;44.540;18.784;2023-06-22T15:22:58;34.60;73.70
55777;DHT22;54079;44.540;18.784;2023-06-22T15:25:24;34.60;74.20
55777;DHT22;54079;44.540;18.784;2023-06-22T15:27:49;34.50;76.10
55777;DHT22;54079;44.540;18.784;2023-06-22T15:30:15;34.60;76.70
55777;DHT22;54079;44.540;18.784;2023-06-22T15:32:45;34.70;75.70
55777;DHT22;54079;44.540;18.784;2023-06-22T15:35:12;34.60;76.60
55777;DHT22;54079;44.540;18.784;2023-06-22T15:37:40;34.70;74.50
55777;DHT22;54079;44.540;18.784;2023-06-22T15:40:06;34.60;74.50
55777;DHT22;54079;44.540;18.784;2023-06-22T15:42:32;34.50;75.70
55777;DHT22;54079;44.540;18.784;2023-06-22T15:44:58;34.60;76.60
55777;DHT22;54079;44.540;18.784;2023-06-22T15:47:24;34.40;76.40
55777;DHT22;54079;44.540;18.784;2023-06-22T15:49:50;34.30;76.40
55777;DHT22;54079;44.540;18.784;2023-06-22T15:52:17;34.20;75.10
55777;DHT22;54079;44.540;18.784;2023-06-22T15:54:45;34.30;76.30
55777;DHT22;54079;44.540;18.784;2023-06-22T15:57:12;34.20;76.60
55777;DHT22;54079;44.540;18.784;2023-06-22T15:59:41;34.20;76.50
55777;DHT22;54079;44.540;18.784;2023-06-22T16:02:08;34.30;76.10
55777;DHT22;54079;44.540;18.784;2023-06-22T16:04:34;34.10;77.20
55777;DHT22;54079;44.540;18.784;2023-06-22T16:07:01;34.20;77.40
55777;DHT22;54079;44.540;18.784;2023-06-22T16:09:28;34.10;76.40
55777;DHT22;54079;44.540;18.784;2023-06-22T16:11:56;34.00;76.90
55777;DHT22;54079;44.540;18.784;2023-06-22T16:14:22;34.00;77.60
55777;DHT22;54079;44.540;18.784;2023-06-22T16:16:48;34.00;78.10
55777;DHT22;54079;44.540;18.784;2023-06-22T16:19:15;34.10;78.00
55777;DHT22;54079;44.540;18.784;2023-06-22T16:21:41;33.90;78.90
55777;DHT22;54079;44.540;18.784;2023-06-22T16:24:07;34.10;77.80
55777;DHT22;54079;44.540;18.784;2023-06-22T16:26:41;34.20;78.90
55777;DHT22;54079;44.540;18.784;2023-06-22T16:29:08;34.20;77.10
55777;DHT22;54079;44.540;18.784;2023-06-22T16:31:34;34.10;76.60
55777;DHT22;54079;44.540;18.784;2023-06-22T16:34:03;34.00;77.90
55777;DHT22;54079;44.540;18.784;2023-06-22T16:36:31;34.10;77.50
55777;DHT22;54079;44.540;18.784;2023-06-22T16:38:57;34.20;78.30
55777;DHT22;54079;44.540;18.784;2023-06-22T16:41:23;34.30;78.00
55777;DHT22;54079;44.540;18.784;2023-06-22T16:43:51;34.30;77.20